createdAt,value
2022-10-03T00:00:53.812Z,0.00
2022-10-03T00:01:53.839Z,0.00
2022-10-03T00:02:53.821Z,0.00
2022-10-03T00:03:53.776Z,0.00
2022-10-03T00:04:53.767Z,0.00
2022-10-03T00:05:53.756Z,0.00
2022-10-03T00:06:53.741Z,0.00
2022-10-03T00:07:53.736Z,0.00
2022-10-03T00:08:53.724Z,0.00
2022-10-03T00:09:53.731Z,0.00
2022-10-03T00:10:53.715Z,0.00
2022-10-03T00:11:53.703Z,0.00
2022-10-03T00:12:53.695Z,0.00
2022-10-03T00:13:53.686Z,0.00
2022-10-03T00:14:53.693Z,0.00
2022-10-03T00:15:53.715Z,0.00
2022-10-03T00:16:53.666Z,0.00
2022-10-03T00:17:53.652Z,0.00
2022-10-03T00:18:53.643Z,0.00
2022-10-03T00:19:53.651Z,0.00
2022-10-03T00:20:54.346Z,0.00
2022-10-03T00:21:53.630Z,0.00
2022-10-03T00:22:54.351Z,0.00
2022-10-03T00:23:53.610Z,0.00
2022-10-03T00:24:53.599Z,0.00
2022-10-03T00:25:53.604Z,0.00
2022-10-03T00:26:53.584Z,0.00
2022-10-03T00:27:53.652Z,0.00
2022-10-03T00:28:53.572Z,0.00
2022-10-03T00:30:42.157Z,0.00
2022-10-03T00:31:42.567Z,0.00
2022-10-03T00:32:42.113Z,0.00
2022-10-03T00:33:43.202Z,0.00
2022-10-03T00:34:43.194Z,0.00
2022-10-03T00:35:43.188Z,0.00
2022-10-03T00:36:43.173Z,0.00
2022-10-03T00:37:43.168Z,0.00
2022-10-03T00:38:43.174Z,0.00
2022-10-03T00:39:43.147Z,0.00
2022-10-03T00:40:43.136Z,0.00
2022-10-03T00:41:43.141Z,0.00
2022-10-03T00:42:43.121Z,0.00
2022-10-03T00:43:43.128Z,0.00
2022-10-03T00:44:43.115Z,0.00
2022-10-03T00:45:43.101Z,0.00
2022-10-03T00:46:43.182Z,0.00
2022-10-03T00:47:43.090Z,0.00
2022-10-03T00:48:43.090Z,0.00
2022-10-03T00:49:43.074Z,0.00
2022-10-03T00:50:43.063Z,0.00
2022-10-03T00:51:43.057Z,0.00
2022-10-03T00:52:43.047Z,0.00
2022-10-03T00:53:43.037Z,0.00
2022-10-03T00:54:43.027Z,0.00
2022-10-03T00:55:43.020Z,0.00
2022-10-03T00:56:43.063Z,0.00
2022-10-03T00:57:43.021Z,0.00
2022-10-03T00:58:42.998Z,0.00
2022-10-03T00:59:46.222Z,0.00
2022-10-03T01:00:45.045Z,0.00
2022-10-03T01:01:43.360Z,0.00
2022-10-03T01:02:42.979Z,0.00
2022-10-03T01:03:42.967Z,0.00
2022-10-03T01:04:42.952Z,0.00
2022-10-03T01:05:42.948Z,0.00
2022-10-03T01:06:42.952Z,0.00
2022-10-03T01:07:42.923Z,0.00
2022-10-03T01:08:42.924Z,0.00
2022-10-03T01:09:42.924Z,0.00
2022-10-03T01:10:42.914Z,0.00
2022-10-03T01:11:43.211Z,0.00
2022-10-03T01:12:42.890Z,0.00
2022-10-03T01:13:42.986Z,0.00
2022-10-03T01:14:42.881Z,0.00
2022-10-03T01:15:42.905Z,0.00
2022-10-03T01:16:42.871Z,0.00
2022-10-03T01:17:42.848Z,0.00
2022-10-03T01:18:42.836Z,0.00
2022-10-03T01:19:42.830Z,0.00
2022-10-03T01:20:42.824Z,0.00
2022-10-03T01:21:42.880Z,0.00
2022-10-03T01:22:42.813Z,0.00
2022-10-03T01:23:42.812Z,0.00
2022-10-03T01:24:42.790Z,0.00
2022-10-03T01:25:42.786Z,0.00
2022-10-03T01:26:42.777Z,0.00
2022-10-03T01:27:42.767Z,0.00
2022-10-03T01:28:42.777Z,0.00
2022-10-03T01:29:42.761Z,0.00
2022-10-03T01:30:42.753Z,0.00
2022-10-03T01:31:43.242Z,0.00
2022-10-03T01:32:42.754Z,0.00
2022-10-03T01:33:42.723Z,0.00
2022-10-03T01:34:42.718Z,0.00
2022-10-03T01:35:42.709Z,0.00
2022-10-03T01:36:43.483Z,0.00
2022-10-03T01:37:42.703Z,0.00
2022-10-03T01:38:42.694Z,0.00
2022-10-03T01:39:42.676Z,0.00
2022-10-03T01:40:42.708Z,0.00
2022-10-03T01:41:43.006Z,0.00
2022-10-03T01:42:42.661Z,0.00
2022-10-03T01:43:42.647Z,0.00
2022-10-03T01:44:42.632Z,0.00
2022-10-03T01:45:42.644Z,0.00
2022-10-03T01:46:42.666Z,0.00
2022-10-03T01:47:42.613Z,0.00
2022-10-03T01:48:42.617Z,0.00
2022-10-03T01:49:42.598Z,0.00
2022-10-03T01:50:43.489Z,0.00
2022-10-03T01:51:42.660Z,0.00
2022-10-03T01:52:43.571Z,0.00
2022-10-03T01:53:43.444Z,0.00
2022-10-03T01:54:42.551Z,0.00
2022-10-03T01:55:43.067Z,0.00
2022-10-03T01:56:42.541Z,0.00
2022-10-03T01:57:42.534Z,0.00
2022-10-03T01:58:42.526Z,0.00
2022-10-03T01:59:42.531Z,0.00
2022-10-03T02:00:42.571Z,0.00
2022-10-03T02:01:43.471Z,0.00
2022-10-03T02:02:44.027Z,0.00
2022-10-03T02:03:42.492Z,0.00
2022-10-03T02:04:42.554Z,0.00
2022-10-03T02:05:42.473Z,0.00
2022-10-03T02:06:42.471Z,0.00
2022-10-03T02:07:42.462Z,0.00
2022-10-03T02:08:42.457Z,0.00
2022-10-03T02:09:42.440Z,0.00
2022-10-03T02:10:42.438Z,0.00
2022-10-03T02:11:42.697Z,0.00
2022-10-03T02:12:42.408Z,0.00
2022-10-03T02:13:43.408Z,0.00
2022-10-03T02:14:42.398Z,0.00
2022-10-03T02:15:42.414Z,0.00
2022-10-03T02:16:42.414Z,0.00
2022-10-03T02:17:42.376Z,0.00
2022-10-03T02:18:42.405Z,0.00
2022-10-03T02:19:42.356Z,0.00
2022-10-03T02:20:42.399Z,0.00
2022-10-03T02:21:42.376Z,0.00
2022-10-03T02:22:42.356Z,0.00
2022-10-03T02:23:42.330Z,0.00
2022-10-03T02:24:42.323Z,0.00
2022-10-03T02:25:42.323Z,0.00
2022-10-03T02:26:42.302Z,0.00
2022-10-03T02:27:42.337Z,0.00
2022-10-03T02:28:42.287Z,0.00
2022-10-03T02:29:42.292Z,0.00
2022-10-03T02:30:42.280Z,0.00
2022-10-03T02:31:42.767Z,0.00
2022-10-03T02:32:42.265Z,0.00
2022-10-03T02:33:42.252Z,0.00
2022-10-03T02:34:42.253Z,0.00
2022-10-03T02:35:42.245Z,0.00
2022-10-03T02:36:42.246Z,0.00
2022-10-03T02:37:42.223Z,0.00
2022-10-03T02:38:42.217Z,0.00
2022-10-03T02:39:42.211Z,0.00
2022-10-03T02:40:42.219Z,0.00
2022-10-03T02:41:42.534Z,0.00
2022-10-03T02:42:42.213Z,0.00
2022-10-03T02:43:42.220Z,0.00
2022-10-03T02:44:42.183Z,0.00
2022-10-03T02:45:42.207Z,0.00
2022-10-03T02:46:42.150Z,0.00
2022-10-03T02:47:42.154Z,0.00
2022-10-03T02:48:42.134Z,0.00
2022-10-03T02:49:42.127Z,0.00
2022-10-03T02:50:42.120Z,0.00
2022-10-03T02:51:42.501Z,0.00
2022-10-03T02:52:42.111Z,0.00
2022-10-03T02:53:42.135Z,0.00
2022-10-03T02:54:42.088Z,0.00
2022-10-03T02:55:42.087Z,0.00
2022-10-03T02:56:42.073Z,0.00
2022-10-03T02:57:42.067Z,0.00
2022-10-03T02:58:42.082Z,0.00
2022-10-03T02:59:42.056Z,0.00
2022-10-03T03:00:42.095Z,0.00
2022-10-03T03:01:42.483Z,0.00
2022-10-03T03:02:42.023Z,0.00
2022-10-03T03:03:42.028Z,0.00
2022-10-03T03:04:42.050Z,0.00
2022-10-03T03:05:42.036Z,0.00
2022-10-03T03:06:41.991Z,0.00
2022-10-03T03:07:41.984Z,0.00
2022-10-03T03:08:41.991Z,0.00
2022-10-03T03:09:41.973Z,0.00
2022-10-03T03:10:41.976Z,0.00
2022-10-03T03:11:42.493Z,0.00
2022-10-03T03:12:41.949Z,0.00
2022-10-03T03:13:42.014Z,0.00
2022-10-03T03:14:41.965Z,0.00
2022-10-03T03:15:41.924Z,0.00
2022-10-03T03:16:41.968Z,0.00
2022-10-03T03:17:41.912Z,0.00
2022-10-03T03:18:41.891Z,0.00
2022-10-03T03:19:41.907Z,0.00
2022-10-03T03:20:41.881Z,0.00
2022-10-03T03:21:42.450Z,0.00
2022-10-03T03:22:41.863Z,0.00
2022-10-03T03:23:41.859Z,0.00
2022-10-03T03:24:41.866Z,0.00
2022-10-03T03:25:41.840Z,0.00
2022-10-03T03:26:41.830Z,0.00
2022-10-03T03:27:41.822Z,0.00
2022-10-03T03:28:41.826Z,0.00
2022-10-03T03:29:42.499Z,0.00
2022-10-03T03:30:41.816Z,0.00
2022-10-03T03:31:43.281Z,0.00
2022-10-03T03:32:41.782Z,0.00
2022-10-03T03:33:41.778Z,0.00
2022-10-03T03:34:41.790Z,0.00
2022-10-03T03:35:41.756Z,0.00
2022-10-03T03:36:41.764Z,0.00
2022-10-03T03:37:41.771Z,0.00
2022-10-03T03:38:41.729Z,0.00
2022-10-03T03:39:41.727Z,0.00
2022-10-03T03:40:41.714Z,0.00
2022-10-03T03:41:42.189Z,0.00
2022-10-03T03:42:41.703Z,0.00
2022-10-03T03:43:41.691Z,0.00
2022-10-03T03:44:41.682Z,0.00
2022-10-03T03:45:41.731Z,0.00
2022-10-03T03:46:41.673Z,0.00
2022-10-03T03:47:41.667Z,0.00
2022-10-03T03:48:41.647Z,0.00
2022-10-03T03:49:41.654Z,0.00
2022-10-03T03:50:41.671Z,0.00
2022-10-03T03:51:41.909Z,0.00
2022-10-03T03:52:41.625Z,0.00
2022-10-03T03:53:41.615Z,0.00
2022-10-03T03:54:41.615Z,0.00
2022-10-03T03:55:41.596Z,0.00
2022-10-03T03:56:41.594Z,0.00
2022-10-03T03:57:41.580Z,0.00
2022-10-03T03:58:41.573Z,0.00
2022-10-03T03:59:41.590Z,0.00
2022-10-03T04:00:41.588Z,0.00
2022-10-03T04:01:42.041Z,0.00
2022-10-03T04:02:41.542Z,0.00
2022-10-03T04:03:41.525Z,0.00
2022-10-03T04:04:41.545Z,0.00
2022-10-03T04:05:41.510Z,0.00
2022-10-03T04:06:41.504Z,0.00
2022-10-03T04:07:41.496Z,0.00
2022-10-03T04:08:41.490Z,0.00
2022-10-03T04:09:41.489Z,0.00
2022-10-03T04:10:41.476Z,0.00
2022-10-03T04:11:41.991Z,0.00
2022-10-03T04:12:41.456Z,0.00
2022-10-03T04:13:41.449Z,0.00
2022-10-03T04:14:41.481Z,0.00
2022-10-03T04:15:41.441Z,0.00
2022-10-03T04:16:41.475Z,0.00
2022-10-03T04:17:41.429Z,0.00
2022-10-03T04:18:41.451Z,0.00
2022-10-03T04:19:41.404Z,0.00
2022-10-03T04:20:41.409Z,0.00
2022-10-03T04:21:41.926Z,0.00
2022-10-03T04:22:41.421Z,0.00
2022-10-03T04:23:41.376Z,0.00
2022-10-03T04:24:41.419Z,0.00
2022-10-03T04:25:41.398Z,0.00
2022-10-03T04:26:41.361Z,0.00
2022-10-03T04:27:41.341Z,0.00
2022-10-03T04:28:41.333Z,0.00
2022-10-03T04:29:41.356Z,0.00
2022-10-03T04:30:41.329Z,0.00
2022-10-03T04:31:41.671Z,0.00
2022-10-03T04:32:41.316Z,0.00
2022-10-03T04:33:41.297Z,0.00
2022-10-03T04:34:41.291Z,0.00
2022-10-03T04:35:41.273Z,0.00
2022-10-03T04:36:41.271Z,0.00
2022-10-03T04:37:41.258Z,0.00
2022-10-03T04:38:41.265Z,0.00
2022-10-03T04:39:41.248Z,0.00
2022-10-03T04:40:41.240Z,0.00
2022-10-03T04:41:43.182Z,0.00
2022-10-03T04:42:42.215Z,0.00
2022-10-03T04:43:41.210Z,0.00
2022-10-03T04:44:41.193Z,0.00
2022-10-03T04:45:42.277Z,0.00
2022-10-03T04:46:41.199Z,0.00
2022-10-03T04:47:41.194Z,0.00
2022-10-03T04:48:41.615Z,0.00
2022-10-03T04:49:41.170Z,0.00
2022-10-03T04:50:41.156Z,0.00
2022-10-03T04:51:41.541Z,0.00
2022-10-03T04:52:41.187Z,0.00
2022-10-03T04:53:41.139Z,0.00
2022-10-03T04:54:41.133Z,4.00
2022-10-03T04:55:41.154Z,4.00
2022-10-03T04:56:41.110Z,0.00
2022-10-03T04:57:41.115Z,4.00
2022-10-03T04:58:41.094Z,4.00
2022-10-03T04:59:42.022Z,4.00
2022-10-03T05:00:41.094Z,4.00
2022-10-03T05:01:41.466Z,8.00
2022-10-03T05:02:41.062Z,8.00
2022-10-03T05:03:41.062Z,8.00
2022-10-03T05:04:41.047Z,12.00
2022-10-03T05:05:41.080Z,12.00
2022-10-03T05:06:41.029Z,16.00
2022-10-03T05:07:41.025Z,20.00
2022-10-03T05:08:41.017Z,20.00
2022-10-03T05:09:41.616Z,24.00
2022-10-03T05:10:41.004Z,28.00
2022-10-03T05:11:41.194Z,32.00
2022-10-03T05:12:40.975Z,44.00
2022-10-03T05:13:40.992Z,52.00
2022-10-03T05:14:40.961Z,60.00
2022-10-03T05:15:40.960Z,72.00
2022-10-03T05:16:41.006Z,84.00
2022-10-03T05:17:40.945Z,88.00
2022-10-03T05:18:40.937Z,96.00
2022-10-03T05:19:40.925Z,100.00
2022-10-03T05:20:40.930Z,108.00
2022-10-03T05:21:41.352Z,120.00
2022-10-03T05:22:40.904Z,128.00
2022-10-03T05:23:40.909Z,144.00
2022-10-03T05:24:40.888Z,152.00
2022-10-03T05:25:40.883Z,164.00
2022-10-03T05:26:45.021Z,164.00
2022-10-03T05:27:42.862Z,164.00
2022-10-03T05:28:40.872Z,168.00
2022-10-03T05:29:40.841Z,172.00
2022-10-03T05:30:40.836Z,180.00
2022-10-03T05:31:41.315Z,192.00
2022-10-03T05:32:40.827Z,208.00
2022-10-03T05:33:40.815Z,212.00
2022-10-03T05:34:40.803Z,212.00
2022-10-03T05:35:40.795Z,212.00
2022-10-03T05:36:40.786Z,220.00
2022-10-03T05:37:40.785Z,220.00
2022-10-03T05:38:40.768Z,208.00
2022-10-03T05:39:40.762Z,200.00
2022-10-03T05:40:40.758Z,212.00
2022-10-03T05:41:40.989Z,240.00
2022-10-03T05:42:40.733Z,280.00
2022-10-03T05:43:40.756Z,312.00
2022-10-03T05:44:40.725Z,360.00
2022-10-03T05:45:40.781Z,412.00
2022-10-03T05:46:40.703Z,464.00
2022-10-03T05:47:40.696Z,504.00
2022-10-03T05:48:40.714Z,540.00
2022-10-03T05:49:40.678Z,588.00
2022-10-03T05:50:40.689Z,636.00
2022-10-03T05:51:41.295Z,700.00
2022-10-03T05:52:40.651Z,768.00
2022-10-03T05:53:40.669Z,808.00
2022-10-03T05:54:40.639Z,848.00
2022-10-03T05:55:40.628Z,908.00
2022-10-03T05:56:41.237Z,988.00
2022-10-03T05:57:41.620Z,1092.00
2022-10-03T05:58:40.613Z,1164.00
2022-10-03T05:59:40.606Z,1208.00
2022-10-03T06:00:40.592Z,1304.00
2022-10-03T06:01:41.138Z,1408.00
2022-10-03T06:02:40.770Z,1484.00
2022-10-03T06:03:40.588Z,1504.00
2022-10-03T06:04:40.560Z,1460.00
2022-10-03T06:05:40.548Z,1344.00
2022-10-03T06:06:40.552Z,1220.00
2022-10-03T06:07:40.534Z,1112.00
2022-10-03T06:08:40.581Z,1064.00
2022-10-03T06:09:40.521Z,1084.00
2022-10-03T06:10:40.529Z,1172.00
2022-10-03T06:11:41.077Z,1236.00
2022-10-03T06:12:40.511Z,992.00
2022-10-03T06:13:40.524Z,864.00
2022-10-03T06:14:40.493Z,924.00
2022-10-03T06:15:40.545Z,1012.00
2022-10-03T06:16:40.464Z,1160.00
2022-10-03T06:17:43.107Z,1320.00
2022-10-03T06:18:41.453Z,1376.00
2022-10-03T06:19:40.451Z,1396.00
2022-10-03T06:20:40.439Z,1540.00
2022-10-03T06:21:40.968Z,1724.00
2022-10-03T06:22:40.422Z,1884.00
2022-10-03T06:23:40.414Z,2024.00
2022-10-03T06:24:40.407Z,2152.00
2022-10-03T06:25:40.403Z,2280.00
2022-10-03T06:26:40.424Z,2264.00
2022-10-03T06:27:40.429Z,2204.00
2022-10-03T06:28:40.374Z,2204.00
2022-10-03T06:29:40.363Z,2312.00
2022-10-03T06:30:40.438Z,2432.00
2022-10-03T06:31:40.662Z,2568.00
2022-10-03T06:32:40.348Z,2712.00
2022-10-03T06:33:40.333Z,2856.00
2022-10-03T06:34:40.339Z,2976.00
2022-10-03T06:35:40.322Z,3096.00
2022-10-03T06:36:40.326Z,3320.00
2022-10-03T06:37:40.309Z,3448.00
2022-10-03T06:38:40.290Z,3648.00
2022-10-03T06:39:40.290Z,3660.00
2022-10-03T06:40:40.273Z,3616.00
2022-10-03T06:41:40.682Z,3628.00
2022-10-03T06:42:40.271Z,3820.00
2022-10-03T06:43:41.268Z,4036.00
2022-10-03T06:44:40.238Z,4196.00
2022-10-03T06:45:40.238Z,4268.00
2022-10-03T06:46:40.295Z,4188.00
2022-10-03T06:47:40.218Z,4060.00
2022-10-03T06:48:40.207Z,3944.00
2022-10-03T06:49:40.638Z,3976.00
2022-10-03T06:50:40.203Z,4100.00
2022-10-03T06:51:40.648Z,4120.00
2022-10-03T06:52:40.179Z,3972.00
2022-10-03T06:53:40.197Z,3732.00
2022-10-03T06:54:40.170Z,3600.00
2022-10-03T06:55:40.173Z,3636.00
2022-10-03T06:56:41.209Z,3792.00
2022-10-03T06:57:40.137Z,3868.00
2022-10-03T06:58:40.128Z,3872.00
2022-10-03T06:59:40.125Z,3636.00
2022-10-03T07:00:40.115Z,3412.00
2022-10-03T07:01:40.423Z,3416.00
2022-10-03T07:02:40.117Z,3528.00
2022-10-03T07:03:40.105Z,3588.00
2022-10-03T07:04:40.095Z,3452.00
2022-10-03T07:05:41.283Z,3432.00
2022-10-03T07:06:41.063Z,3556.00
2022-10-03T07:07:40.077Z,3668.00
2022-10-03T07:08:40.061Z,3576.00
2022-10-03T07:09:40.039Z,3432.00
2022-10-03T07:10:40.037Z,3548.00
2022-10-03T07:11:40.421Z,3672.00
2022-10-03T07:12:40.023Z,3892.00
2022-10-03T07:13:40.003Z,4244.00
2022-10-03T07:14:40.030Z,4324.00
2022-10-03T07:16:08.402Z,4228.00
2022-10-03T07:16:42.014Z,4124.00
2022-10-03T07:17:39.971Z,4084.00
2022-10-03T07:18:39.967Z,4296.00
2022-10-03T07:19:39.984Z,4300.00
2022-10-03T07:20:39.964Z,4480.00
2022-10-03T07:21:40.402Z,4792.00
2022-10-03T07:22:39.992Z,5036.00
2022-10-03T07:23:39.938Z,5100.00
2022-10-03T07:24:39.920Z,5092.00
2022-10-03T07:25:39.918Z,5292.00
2022-10-03T07:26:39.916Z,5516.00
2022-10-03T07:27:39.895Z,5612.00
2022-10-03T07:28:40.050Z,5748.00
2022-10-03T07:29:39.888Z,5860.00
2022-10-03T07:30:39.875Z,6012.00
2022-10-03T07:31:40.191Z,6188.00
2022-10-03T07:32:39.857Z,6244.00
2022-10-03T07:33:39.860Z,6176.00
2022-10-03T07:34:39.845Z,6200.00
2022-10-03T07:35:39.835Z,6292.00
2022-10-03T07:36:39.841Z,6444.00
2022-10-03T07:37:39.839Z,6924.00
2022-10-03T07:38:39.821Z,7196.00
2022-10-03T07:39:39.802Z,7136.00
2022-10-03T07:40:40.561Z,7456.00
2022-10-03T07:41:40.112Z,7644.00
2022-10-03T07:42:43.522Z,7380.00
2022-10-03T07:43:42.057Z,6980.00
2022-10-03T07:44:39.758Z,6280.00
2022-10-03T07:45:39.754Z,5752.00
2022-10-03T07:46:39.790Z,5168.00
2022-10-03T07:47:39.745Z,5056.00
2022-10-03T07:48:39.725Z,5128.00
2022-10-03T07:49:39.731Z,5172.00
2022-10-03T07:50:39.715Z,5416.00
2022-10-03T07:51:40.138Z,5912.00
2022-10-03T07:52:39.716Z,6756.00
2022-10-03T07:53:39.699Z,7644.00
2022-10-03T07:54:39.708Z,8360.00
2022-10-03T07:55:39.684Z,8692.00
2022-10-03T07:56:39.663Z,8784.00
2022-10-03T07:57:39.683Z,8976.00
2022-10-03T07:58:39.656Z,9032.00
2022-10-03T07:59:39.657Z,8820.00
2022-10-03T08:00:40.833Z,8460.00
2022-10-03T08:01:41.943Z,8120.00
2022-10-03T08:02:39.655Z,7868.00
2022-10-03T08:03:40.596Z,8028.00
2022-10-03T08:04:39.602Z,8068.00
2022-10-03T08:05:39.593Z,7820.00
2022-10-03T08:06:39.599Z,7456.00
2022-10-03T08:07:39.573Z,7152.00
2022-10-03T08:08:39.569Z,7108.00
2022-10-03T08:09:39.580Z,7140.00
2022-10-03T08:10:40.799Z,7096.00
2022-10-03T08:11:40.914Z,6844.00
2022-10-03T08:12:39.537Z,6708.00
2022-10-03T08:13:39.589Z,6688.00
2022-10-03T08:14:39.519Z,6892.00
2022-10-03T08:15:39.549Z,7480.00
2022-10-03T08:16:39.513Z,8128.00
2022-10-03T08:17:39.556Z,8616.00
2022-10-03T08:18:39.496Z,8908.00
2022-10-03T08:19:39.483Z,9108.00
2022-10-03T08:20:39.482Z,9196.00
2022-10-03T08:21:39.819Z,9228.00
2022-10-03T08:22:39.459Z,8980.00
2022-10-03T08:23:39.467Z,8812.00
2022-10-03T08:24:39.454Z,8800.00
2022-10-03T08:25:39.461Z,8636.00
2022-10-03T08:26:39.457Z,8372.00
2022-10-03T08:27:39.425Z,7984.00
2022-10-03T08:28:39.415Z,7532.00
2022-10-03T08:29:39.407Z,7212.00
2022-10-03T08:30:39.396Z,7100.00
2022-10-03T08:31:39.739Z,7108.00
2022-10-03T08:32:39.417Z,6916.00
2022-10-03T08:33:39.386Z,6740.00
2022-10-03T08:34:39.399Z,6464.00
2022-10-03T08:35:39.371Z,6452.00
2022-10-03T08:36:39.365Z,6528.00
2022-10-03T08:37:39.348Z,6584.00
2022-10-03T08:38:39.358Z,6368.00
2022-10-03T08:39:39.344Z,5728.00
2022-10-03T08:40:39.351Z,5172.00
2022-10-03T08:41:39.571Z,5172.00
2022-10-03T08:42:40.167Z,5260.00
2022-10-03T08:43:39.311Z,5124.00
2022-10-03T08:44:39.286Z,4768.00
2022-10-03T08:45:39.280Z,4664.00
2022-10-03T08:46:39.343Z,4696.00
2022-10-03T08:47:39.263Z,4928.00
2022-10-03T08:48:39.268Z,5460.00
2022-10-03T08:49:39.264Z,5328.00
2022-10-03T08:50:39.259Z,5428.00
2022-10-03T08:51:40.625Z,5480.00
2022-10-03T08:52:39.223Z,5440.00
2022-10-03T08:53:39.276Z,5768.00
2022-10-03T08:54:39.211Z,6860.00
2022-10-03T08:55:39.206Z,8276.00
2022-10-03T08:56:39.187Z,9340.00
2022-10-03T08:57:39.189Z,9808.00
2022-10-03T08:58:39.183Z,10308.00
2022-10-03T08:59:39.185Z,10708.00
2022-10-03T09:00:39.178Z,10668.00
2022-10-03T09:01:39.509Z,10280.00
2022-10-03T09:02:39.226Z,9688.00
2022-10-03T09:03:43.198Z,9024.00
2022-10-03T09:04:40.159Z,9168.00
2022-10-03T09:05:39.126Z,9116.00
2022-10-03T09:06:52.749Z,8616.00
2022-10-03T09:07:41.160Z,8296.00
2022-10-03T09:08:39.093Z,8104.00
2022-10-03T09:09:39.096Z,7796.00
2022-10-03T09:10:39.079Z,7856.00
2022-10-03T09:11:40.142Z,7872.00
2022-10-03T09:12:39.426Z,7728.00
2022-10-03T09:13:39.075Z,7872.00
2022-10-03T09:14:39.074Z,7996.00
2022-10-03T09:15:39.144Z,8360.00
2022-10-03T09:16:39.384Z,8324.00
2022-10-03T09:17:39.043Z,7868.00
2022-10-03T09:18:39.027Z,7596.00
2022-10-03T09:19:39.038Z,7048.00
2022-10-03T09:20:39.010Z,7288.00
2022-10-03T09:21:39.004Z,7040.00
2022-10-03T09:22:39.030Z,6440.00
2022-10-03T09:23:38.996Z,6252.00
2022-10-03T09:24:38.973Z,5692.00
2022-10-03T09:25:40.299Z,5376.00
2022-10-03T09:26:40.104Z,5484.00
2022-10-03T09:27:39.952Z,5896.00
2022-10-03T09:28:40.247Z,6448.00
2022-10-03T09:29:39.671Z,6928.00
2022-10-03T09:30:38.960Z,6820.00
2022-10-03T09:31:39.356Z,6500.00
2022-10-03T09:32:38.908Z,7024.00
2022-10-03T09:33:38.933Z,7664.00
2022-10-03T09:34:38.939Z,8408.00
2022-10-03T09:35:39.185Z,9112.00
2022-10-03T09:36:38.879Z,9640.00
2022-10-03T09:37:39.699Z,10060.00
2022-10-03T09:38:38.998Z,10232.00
2022-10-03T09:39:38.945Z,10432.00
2022-10-03T09:40:39.753Z,10392.00
2022-10-03T09:41:39.170Z,9988.00
2022-10-03T09:42:39.742Z,9376.00
2022-10-03T09:43:38.911Z,9048.00
2022-10-03T09:44:38.832Z,8984.00
2022-10-03T09:45:38.865Z,8824.00
2022-10-03T09:46:41.886Z,8500.00
2022-10-03T09:47:39.796Z,7688.00
2022-10-03T09:48:38.801Z,7272.00
2022-10-03T09:49:38.794Z,6872.00
2022-10-03T09:50:38.807Z,6360.00
2022-10-03T09:51:39.214Z,6428.00
2022-10-03T09:52:38.777Z,6712.00
2022-10-03T09:53:38.749Z,6572.00
2022-10-03T09:54:38.850Z,6180.00
2022-10-03T09:55:38.743Z,5800.00
2022-10-03T09:56:39.033Z,6012.00
2022-10-03T09:57:38.717Z,6148.00
2022-10-03T09:58:38.762Z,5400.00
2022-10-03T09:59:38.737Z,5380.00
2022-10-03T10:00:38.779Z,5672.00
2022-10-03T10:01:38.945Z,6236.00
2022-10-03T10:02:38.677Z,7040.00
2022-10-03T10:03:40.243Z,7864.00
2022-10-03T10:04:54.363Z,8144.00
2022-10-03T10:05:40.666Z,8260.00
2022-10-03T10:06:38.928Z,8472.00
2022-10-03T10:07:40.160Z,8804.00
2022-10-03T10:08:39.200Z,9200.00
2022-10-03T10:09:38.640Z,9216.00
2022-10-03T10:10:38.665Z,9400.00
2022-10-03T10:11:39.177Z,9696.00
2022-10-03T10:12:38.668Z,9664.00
2022-10-03T10:14:03.211Z,9836.00
2022-10-03T10:14:40.585Z,10072.00
2022-10-03T10:15:38.622Z,9828.00
2022-10-03T10:16:39.069Z,9496.00
2022-10-03T10:17:38.693Z,9200.00
2022-10-03T10:18:38.557Z,8976.00
2022-10-03T10:19:38.567Z,9128.00
2022-10-03T10:20:38.654Z,9656.00
2022-10-03T10:21:38.566Z,10096.00
2022-10-03T10:22:38.533Z,10504.00
2022-10-03T10:23:38.553Z,10652.00
2022-10-03T10:24:38.513Z,10812.00
2022-10-03T10:25:38.524Z,11044.00
2022-10-03T10:26:38.491Z,11320.00
2022-10-03T10:27:38.489Z,11208.00
2022-10-03T10:28:38.499Z,10808.00
2022-10-03T10:29:38.459Z,10460.00
2022-10-03T10:30:38.459Z,10368.00
2022-10-03T10:31:38.556Z,10420.00
2022-10-03T10:32:38.451Z,10472.00
2022-10-03T10:33:38.486Z,10336.00
2022-10-03T10:34:38.437Z,9900.00
2022-10-03T10:35:38.417Z,9484.00
2022-10-03T10:36:38.773Z,8952.00
2022-10-03T10:37:41.596Z,8396.00
2022-10-03T10:38:39.398Z,8112.00
2022-10-03T10:39:38.395Z,7804.00
2022-10-03T10:40:38.382Z,7232.00
2022-10-03T10:41:38.715Z,6800.00
2022-10-03T10:42:38.368Z,6356.00
2022-10-03T10:43:38.366Z,6088.00
2022-10-03T10:44:38.372Z,5744.00
2022-10-03T10:45:38.343Z,5516.00
2022-10-03T10:46:38.689Z,5144.00
2022-10-03T10:47:38.325Z,4896.00
2022-10-03T10:48:38.331Z,4856.00
2022-10-03T10:49:38.326Z,5284.00
2022-10-03T10:50:40.125Z,5960.00
2022-10-03T10:51:38.294Z,6620.00
2022-10-03T10:52:39.309Z,6892.00
2022-10-03T10:53:38.283Z,6960.00
2022-10-03T10:54:38.280Z,7352.00
2022-10-03T10:55:40.773Z,7868.00
2022-10-03T10:56:38.629Z,8340.00
2022-10-03T10:57:38.248Z,8788.00
2022-10-03T10:58:38.244Z,9040.00
2022-10-03T10:59:38.231Z,9284.00
2022-10-03T11:00:38.323Z,9376.00
2022-10-03T11:01:39.443Z,9468.00
2022-10-03T11:02:38.210Z,9888.00
2022-10-03T11:03:38.226Z,10268.00
2022-10-03T11:04:38.244Z,10392.00
2022-10-03T11:05:38.243Z,10052.00
2022-10-03T11:06:38.612Z,10072.00
2022-10-03T11:07:38.174Z,10140.00
2022-10-03T11:08:38.159Z,10236.00
2022-10-03T11:09:38.162Z,10348.00
2022-10-03T11:10:39.735Z,10396.00
2022-10-03T11:11:38.136Z,10384.00
2022-10-03T11:12:38.169Z,10072.00
2022-10-03T11:13:38.670Z,9904.00
2022-10-03T11:14:38.130Z,9760.00
2022-10-03T11:15:38.701Z,9684.00
2022-10-03T11:16:38.551Z,9524.00
2022-10-03T11:17:38.107Z,9512.00
2022-10-03T11:18:38.097Z,9548.00
2022-10-03T11:19:38.075Z,9380.00
2022-10-03T11:20:38.086Z,9456.00
2022-10-03T11:21:38.072Z,9568.00
2022-10-03T11:22:38.044Z,9312.00
2022-10-03T11:23:38.040Z,9256.00
2022-10-03T11:24:38.051Z,9256.00
2022-10-03T11:25:38.034Z,9088.00
2022-10-03T11:26:38.450Z,9272.00
2022-10-03T11:27:38.002Z,9704.00
2022-10-03T11:28:38.079Z,10004.00
2022-10-03T11:29:38.004Z,10124.00
2022-10-03T11:30:38.019Z,10012.00
2022-10-03T11:31:38.091Z,9764.00
2022-10-03T11:32:37.984Z,9720.00
2022-10-03T11:33:37.963Z,9832.00
2022-10-03T11:34:37.950Z,10052.00
2022-10-03T11:35:42.238Z,10276.00
2022-10-03T11:36:40.291Z,10336.00
2022-10-03T11:37:37.927Z,10284.00
2022-10-03T11:38:37.936Z,10152.00
2022-10-03T11:39:37.914Z,10132.00
2022-10-03T11:40:37.902Z,10012.00
2022-10-03T11:41:37.890Z,10188.00
2022-10-03T11:42:37.892Z,9952.00
2022-10-03T11:43:37.882Z,10120.00
2022-10-03T11:44:37.866Z,10172.00
2022-10-03T11:45:37.931Z,10256.00
2022-10-03T11:46:38.311Z,10072.00
2022-10-03T11:47:37.879Z,9760.00
2022-10-03T11:48:37.852Z,9604.00
2022-10-03T11:49:37.847Z,9504.00
2022-10-03T11:50:37.862Z,9480.00
2022-10-03T11:51:38.651Z,9688.00
2022-10-03T11:52:37.806Z,9644.00
2022-10-03T11:53:37.884Z,10192.00
2022-10-03T11:54:37.786Z,10336.00
2022-10-03T11:55:37.791Z,10496.00
2022-10-03T11:56:38.276Z,10352.00
2022-10-03T11:57:37.791Z,9568.00
2022-10-03T11:58:37.765Z,9444.00
2022-10-03T11:59:37.761Z,9316.00
2022-10-03T12:00:37.762Z,8952.00
2022-10-03T12:01:38.105Z,8596.00
2022-10-03T12:02:37.812Z,8644.00
2022-10-03T12:03:37.759Z,8876.00
2022-10-03T12:04:37.730Z,8960.00
2022-10-03T12:05:37.708Z,8852.00
2022-10-03T12:06:37.923Z,8496.00
2022-10-03T12:07:37.711Z,8112.00
2022-10-03T12:08:37.713Z,7944.00
2022-10-03T12:09:37.688Z,7932.00
2022-10-03T12:10:37.666Z,8048.00
2022-10-03T12:11:37.972Z,7980.00
2022-10-03T12:12:37.658Z,7884.00
2022-10-03T12:13:37.674Z,7996.00
2022-10-03T12:14:37.647Z,8220.00
2022-10-03T12:15:37.632Z,8472.00
2022-10-03T12:16:37.652Z,8668.00
2022-10-03T12:17:37.626Z,8780.00
2022-10-03T12:18:37.622Z,8784.00
2022-10-03T12:19:37.608Z,8792.00
2022-10-03T12:20:37.595Z,8864.00
2022-10-03T12:21:37.864Z,8984.00
2022-10-03T12:22:38.576Z,9296.00
2022-10-03T12:23:38.222Z,9544.00
2022-10-03T12:24:37.560Z,10116.00
2022-10-03T12:25:37.566Z,9532.00
2022-10-03T12:26:37.582Z,9260.00
2022-10-03T12:27:37.551Z,9228.00
2022-10-03T12:28:37.587Z,9284.00
2022-10-03T12:29:37.534Z,9144.00
2022-10-03T12:30:37.534Z,8464.00
2022-10-03T12:31:37.805Z,8072.00
2022-10-03T12:32:37.502Z,7704.00
2022-10-03T12:33:37.493Z,7456.00
2022-10-03T12:34:37.511Z,7472.00